createdAt,value
2023-05-05T00:00:37.926Z,11.60
2023-05-05T00:03:33.067Z,9.80
2023-05-05T00:06:28.376Z,19.00
2023-05-05T00:09:22.630Z,12.50
2023-05-05T00:12:16.773Z,10.80
2023-05-05T00:15:12.266Z,10.10
2023-05-05T00:18:06.846Z,11.10
2023-05-05T00:21:00.944Z,10.90
2023-05-05T00:23:55.331Z,9.80
2023-05-05T00:26:49.440Z,10.60
2023-05-05T00:29:43.424Z,11.30
2023-05-05T00:32:37.545Z,10.60
2023-05-05T00:35:31.910Z,9.40
2023-05-05T00:38:26.382Z,10.90
2023-05-05T00:41:20.460Z,14.00
2023-05-05T00:44:14.647Z,15.50
2023-05-05T00:47:08.834Z,14.10
2023-05-05T00:50:03.082Z,13.50
2023-05-05T00:52:59.935Z,13.40
2023-05-05T00:55:54.031Z,13.60
2023-05-05T00:58:49.230Z,10.10
2023-05-05T01:01:43.839Z,10.90
2023-05-05T01:04:37.853Z,12.10
2023-05-05T01:07:42.473Z,11.40
2023-05-05T01:10:46.649Z,11.30
2023-05-05T01:13:54.405Z,11.30
2023-05-05T01:17:00.144Z,11.10
2023-05-05T01:20:04.324Z,11.60
2023-05-05T01:26:14.443Z,9.30
2023-05-05T01:29:34.683Z,11.90
2023-05-05T01:32:32.793Z,14.20
2023-05-05T01:35:32.317Z,10.80
2023-05-05T01:38:33.877Z,11.10
2023-05-05T01:41:33.146Z,15.30
2023-05-05T01:44:28.903Z,12.80
2023-05-05T01:47:25.143Z,10.60
2023-05-05T01:50:19.949Z,12.40
2023-05-05T01:53:14.808Z,13.30
2023-05-05T01:56:10.515Z,14.40
2023-05-05T01:59:06.697Z,10.20
2023-05-05T02:02:02.882Z,12.40
2023-05-05T02:04:58.330Z,12.20
2023-05-05T02:07:56.363Z,12.90
2023-05-05T02:10:50.851Z,10.90
2023-05-05T02:13:45.531Z,11.80
2023-05-05T02:16:41.372Z,11.60
2023-05-05T02:19:40.067Z,11.10
2023-05-05T02:22:34.014Z,11.10
2023-05-05T02:25:32.323Z,12.50
2023-05-05T02:28:49.300Z,14.40
2023-05-05T02:31:48.713Z,14.00
2023-05-05T02:34:44.329Z,12.40
2023-05-05T02:37:39.742Z,13.90
2023-05-05T02:40:36.457Z,11.30
2023-05-05T02:43:33.108Z,11.60
2023-05-05T02:46:27.168Z,13.60
2023-05-05T02:49:13.555Z,13.80
2023-05-05T02:52:07.618Z,13.40
2023-05-05T02:55:02.514Z,13.10
2023-05-05T02:58:06.623Z,13.50
2023-05-05T03:04:10.271Z,12.60
2023-05-05T03:07:25.941Z,18.20
2023-05-05T03:10:24.141Z,10.80
2023-05-05T03:13:20.721Z,14.30
2023-05-05T03:16:18.156Z,12.40
2023-05-05T03:19:14.997Z,12.60
2023-05-05T03:22:09.011Z,15.50
2023-05-05T03:25:03.396Z,14.20
2023-05-05T03:27:57.705Z,13.90
2023-05-05T03:30:51.577Z,12.20
2023-05-05T03:33:45.781Z,18.80
2023-05-05T03:36:40.524Z,14.70
2023-05-05T03:39:34.301Z,14.10
2023-05-05T03:42:28.326Z,14.50
2023-05-05T03:45:22.672Z,13.10
2023-05-05T03:48:16.639Z,12.70
2023-05-05T03:51:10.780Z,20.50
2023-05-05T03:54:04.891Z,15.40
2023-05-05T03:56:59.834Z,14.50
2023-05-05T03:59:53.855Z,15.90
2023-05-05T04:02:47.689Z,15.90
2023-05-05T04:05:41.778Z,18.60
2023-05-05T04:08:36.099Z,16.50
2023-05-05T04:11:30.102Z,14.10
2023-05-05T04:14:24.068Z,16.40
2023-05-05T04:17:18.086Z,18.50
2023-05-05T04:20:14.156Z,16.00
2023-05-05T04:23:08.027Z,15.20
2023-05-05T04:26:01.885Z,18.30
2023-05-05T04:28:56.252Z,15.10
2023-05-05T04:31:50.581Z,15.90
2023-05-05T04:34:44.306Z,14.70
2023-05-05T04:37:37.998Z,16.00
2023-05-05T04:40:31.805Z,20.10
2023-05-05T04:43:25.620Z,16.30
2023-05-05T04:46:19.823Z,15.90
2023-05-05T04:49:13.971Z,15.90
2023-05-05T04:52:08.233Z,13.30
2023-05-05T04:55:02.360Z,11.40
2023-05-05T04:57:56.525Z,17.60
2023-05-05T05:00:50.520Z,15.80
2023-05-05T05:03:44.641Z,14.90
2023-05-05T05:06:38.377Z,15.50
2023-05-05T05:09:32.262Z,13.50
2023-05-05T05:12:26.211Z,14.90
2023-05-05T05:15:20.445Z,18.80
2023-05-05T05:18:14.317Z,15.50
2023-05-05T05:21:08.274Z,13.50
2023-05-05T05:24:02.404Z,16.50
2023-05-05T05:26:56.400Z,16.40
2023-05-05T05:29:50.305Z,14.20
2023-05-05T05:32:44.130Z,13.90
2023-05-05T05:35:37.949Z,17.80
2023-05-05T05:38:31.530Z,15.60
2023-05-05T05:41:25.373Z,16.60
2023-05-05T05:44:19.420Z,16.80
2023-05-05T05:47:13.529Z,16.90
2023-05-05T05:50:09.454Z,15.60
2023-05-05T05:53:03.990Z,17.70
2023-05-05T05:55:58.335Z,13.50
2023-05-05T05:58:52.515Z,13.30
2023-05-05T06:01:46.519Z,15.00
2023-05-05T06:04:40.842Z,12.80
2023-05-05T06:07:34.592Z,13.20
2023-05-05T06:10:29.007Z,13.80
2023-05-05T06:13:22.947Z,13.20
2023-05-05T06:16:17.179Z,16.20
2023-05-05T06:19:11.343Z,17.80
2023-05-05T06:22:05.166Z,14.20
2023-05-05T06:24:58.943Z,18.30
2023-05-05T06:27:53.333Z,14.40
2023-05-05T06:30:47.163Z,15.40
2023-05-05T06:33:41.050Z,14.60
2023-05-05T06:36:35.271Z,15.30
2023-05-05T06:39:29.089Z,14.90
2023-05-05T06:42:23.015Z,12.40
2023-05-05T06:45:17.230Z,12.50
2023-05-05T06:48:11.267Z,12.20
2023-05-05T06:51:05.387Z,13.00
2023-05-05T06:53:59.532Z,12.60
2023-05-05T06:56:53.196Z,16.90
2023-05-05T06:59:47.036Z,11.70
2023-05-05T07:02:40.918Z,8.80
2023-05-05T07:05:34.927Z,9.30
2023-05-05T07:08:29.288Z,8.70
2023-05-05T07:11:23.365Z,7.90
2023-05-05T07:14:14.340Z,8.80
2023-05-05T07:17:08.478Z,11.60
2023-05-05T07:20:03.029Z,11.60
2023-05-05T07:22:56.604Z,7.60
2023-05-05T07:25:50.684Z,9.80
2023-05-05T07:28:43.116Z,6.70
2023-05-05T07:31:37.010Z,7.20
2023-05-05T07:34:32.761Z,8.20
2023-05-05T07:37:26.769Z,8.10
2023-05-05T07:40:20.717Z,11.80
2023-05-05T07:43:14.539Z,10.60
2023-05-05T07:46:08.650Z,5.70
2023-05-05T07:49:02.530Z,7.90
2023-05-05T07:51:56.604Z,6.10
2023-05-05T07:54:50.524Z,6.50
2023-05-05T07:57:44.201Z,6.90
2023-05-05T08:00:37.833Z,7.10
2023-05-05T08:03:31.796Z,7.00
2023-05-05T08:06:25.562Z,7.20
2023-05-05T08:09:14.153Z,6.20
2023-05-05T08:12:08.374Z,9.10
2023-05-05T08:15:02.697Z,5.60
2023-05-05T08:17:56.876Z,7.10
2023-05-05T08:20:50.646Z,9.30
2023-05-05T08:23:44.991Z,8.90
2023-05-05T08:26:38.768Z,7.70
2023-05-05T08:29:32.567Z,5.30
2023-05-05T08:32:27.845Z,6.20
2023-05-05T08:35:24.196Z,5.20
2023-05-05T08:38:19.100Z,6.60
2023-05-05T08:41:18.291Z,5.20
2023-05-05T08:44:13.610Z,6.40
2023-05-05T08:47:09.416Z,7.70
2023-05-05T08:50:05.779Z,5.70
2023-05-05T08:53:11.509Z,4.20
2023-05-05T08:56:08.677Z,8.80
2023-05-05T08:59:03.582Z,7.70
2023-05-05T09:01:58.861Z,6.00
2023-05-05T09:04:53.066Z,5.70
2023-05-05T09:07:47.278Z,6.80
2023-05-05T09:10:43.052Z,6.60
2023-05-05T09:13:36.905Z,4.30
2023-05-05T09:16:30.735Z,4.10
2023-05-05T09:19:24.479Z,4.10
2023-05-05T09:22:18.489Z,4.90
2023-05-05T09:25:21.244Z,4.00
2023-05-05T09:28:17.405Z,5.40
2023-05-05T09:31:19.840Z,7.70
2023-05-05T09:34:19.622Z,5.30
2023-05-05T09:37:14.806Z,4.90
2023-05-05T09:40:10.744Z,6.40
2023-05-05T09:43:06.879Z,5.90
2023-05-05T09:46:10.313Z,4.70
2023-05-05T09:49:18.028Z,5.10
2023-05-05T09:52:18.098Z,4.40
2023-05-05T09:55:20.889Z,4.40
2023-05-05T09:58:24.846Z,5.50
2023-05-05T10:01:27.196Z,5.80
2023-05-05T10:04:31.901Z,9.10
2023-05-05T10:07:28.014Z,9.00
2023-05-05T10:10:36.412Z,8.40
2023-05-05T10:13:54.400Z,9.50
2023-05-05T10:16:52.577Z,10.60
2023-05-05T10:19:47.510Z,9.00
2023-05-05T10:22:44.817Z,7.90
2023-05-05T10:25:51.981Z,8.80
2023-05-05T10:28:53.040Z,7.50
2023-05-05T10:31:54.327Z,4.60
2023-05-05T10:34:55.241Z,8.20
2023-05-05T10:37:49.678Z,10.40
2023-05-05T10:40:46.526Z,4.20
2023-05-05T10:43:41.707Z,5.80
2023-05-05T10:46:35.750Z,4.50
2023-05-05T10:49:48.451Z,23.40
2023-05-05T10:52:49.146Z,6.20
2023-05-05T10:55:53.460Z,7.40
2023-05-05T10:58:59.133Z,6.30
2023-05-05T11:01:55.173Z,8.20
2023-05-05T11:05:17.849Z,3.60
2023-05-05T11:14:33.934Z,5.30
2023-05-05T11:17:50.232Z,3.50
2023-05-05T11:21:18.375Z,5.20
2023-05-05T11:24:31.366Z,4.60
2023-05-05T11:27:44.916Z,6.30
2023-05-05T11:30:59.619Z,6.10
2023-05-05T11:33:53.406Z,5.20
2023-05-05T11:36:47.150Z,5.20
2023-05-05T11:40:00.999Z,3.60
2023-05-05T11:43:19.694Z,8.30
2023-05-05T11:46:17.613Z,3.70
2023-05-05T11:49:11.420Z,4.60
2023-05-05T11:52:07.468Z,6.50
2023-05-05T11:55:06.613Z,4.30
2023-05-05T11:58:00.593Z,3.10
2023-05-05T12:00:54.231Z,7.70
2023-05-05T12:03:48.119Z,4.60
2023-05-05T12:06:42.447Z,6.00
2023-05-05T12:09:36.268Z,7.80
2023-05-05T12:12:42.217Z,4.60
2023-05-05T12:15:36.969Z,6.20
2023-05-05T12:18:30.700Z,4.90
2023-05-05T12:21:24.572Z,4.60
2023-05-05T12:24:18.870Z,5.40
2023-05-05T12:27:15.930Z,7.60
2023-05-05T12:30:19.541Z,5.30
2023-05-05T12:33:13.175Z,7.30
2023-05-05T12:36:08.332Z,5.70
2023-05-05T12:39:02.066Z,4.20
2023-05-05T12:42:05.027Z,5.30
2023-05-05T12:44:58.675Z,6.70
2023-05-05T12:47:52.390Z,4.50
2023-05-05T12:50:45.886Z,3.50
2023-05-05T12:53:39.484Z,5.50
2023-05-05T12:56:45.619Z,5.60
2023-05-05T12:59:39.315Z,4.20
2023-05-05T13:02:39.307Z,5.20
2023-05-05T13:05:37.185Z,5.80
2023-05-05T13:08:47.114Z,8.20
2023-05-05T13:11:41.657Z,6.70
2023-05-05T13:14:36.318Z,8.50
2023-05-05T13:17:30.057Z,6.70
2023-05-05T13:20:23.700Z,5.80
2023-05-05T13:23:17.337Z,4.80
2023-05-05T13:26:11.157Z,12.40
2023-05-05T13:29:05.006Z,8.60
2023-05-05T13:31:58.742Z,4.60
2023-05-05T13:34:52.502Z,7.70
2023-05-05T13:37:47.511Z,5.30
2023-05-05T13:40:41.190Z,8.90
2023-05-05T13:43:34.889Z,5.10
2023-05-05T13:46:28.590Z,9.00
2023-05-05T13:49:22.478Z,5.70
2023-05-05T13:52:16.218Z,6.80
2023-05-05T13:55:12.200Z,5.80
2023-05-05T13:58:06.423Z,6.50
2023-05-05T14:01:00.311Z,7.00
2023-05-05T14:03:56.932Z,7.90
2023-05-05T14:06:51.140Z,6.30
2023-05-05T14:09:44.736Z,6.80
2023-05-05T14:12:38.438Z,7.30
2023-05-05T14:15:32.167Z,16.70
2023-05-05T14:18:25.845Z,12.40
2023-05-05T14:21:19.511Z,8.50
2023-05-05T14:24:13.445Z,6.70
2023-05-05T14:27:07.255Z,8.00
2023-05-05T14:30:00.885Z,9.10
2023-05-05T14:32:54.496Z,5.30
2023-05-05T14:35:48.193Z,4.50
2023-05-05T14:38:42.862Z,8.90
2023-05-05T14:41:36.673Z,4.90
2023-05-05T14:44:30.390Z,6.10
2023-05-05T14:47:25.523Z,4.50
2023-05-05T14:50:19.370Z,4.30
2023-05-05T14:53:13.588Z,6.20
2023-05-05T14:56:08.322Z,5.30
2023-05-05T14:59:02.085Z,4.80
2023-05-05T15:01:56.455Z,5.20
2023-05-05T15:04:50.409Z,3.90
2023-05-05T15:07:44.363Z,5.60
2023-05-05T15:10:38.270Z,5.50
2023-05-05T15:13:32.187Z,4.30
2023-05-05T15:16:25.949Z,5.30
2023-05-05T15:19:14.696Z,4.40
2023-05-05T15:22:08.864Z,4.70
2023-05-05T15:25:02.942Z,8.60
2023-05-05T15:27:58.776Z,4.70
2023-05-05T15:30:52.593Z,5.90
2023-05-05T15:33:48.507Z,6.10
2023-05-05T15:36:42.258Z,4.00
2023-05-05T15:39:35.930Z,6.90
2023-05-05T15:42:29.601Z,6.70
2023-05-05T15:45:23.267Z,7.60
2023-05-05T15:48:16.846Z,4.80
2023-05-05T15:51:12.368Z,5.50
2023-05-05T15:54:07.010Z,3.40
2023-05-05T15:57:01.268Z,7.90
2023-05-05T15:59:56.804Z,4.00
2023-05-05T16:02:50.845Z,9.00
2023-05-05T16:05:44.645Z,3.90
2023-05-05T16:08:39.183Z,4.70
2023-05-05T16:11:33.536Z,6.00
2023-05-05T16:14:27.809Z,5.00
2023-05-05T16:17:22.800Z,3.80
2023-05-05T16:20:17.402Z,5.00
2023-05-05T16:23:11.303Z,5.60
2023-05-05T16:26:05.494Z,4.80
2023-05-05T16:28:59.198Z,5.20
2023-05-05T16:31:52.917Z,6.90
2023-05-05T16:34:46.770Z,5.80
2023-05-05T16:37:40.765Z,4.70
2023-05-05T16:40:36.833Z,4.00
2023-05-05T16:43:31.182Z,5.20
2023-05-05T16:46:25.058Z,7.00
2023-05-05T16:49:18.945Z,5.50
2023-05-05T16:52:12.657Z,5.90
2023-05-05T16:55:07.251Z,4.70
2023-05-05T16:58:01.765Z,5.30
2023-05-05T17:00:55.931Z,4.40
2023-05-05T17:03:49.796Z,4.70
2023-05-05T17:06:43.897Z,4.40
2023-05-05T17:09:38.005Z,4.30
2023-05-05T17:12:32.101Z,6.70
2023-05-05T17:15:26.207Z,6.20
2023-05-05T17:18:21.818Z,7.50
2023-05-05T17:21:15.800Z,4.80
2023-05-05T17:24:11.407Z,5.10
2023-05-05T17:27:05.446Z,4.80
2023-05-05T17:29:59.300Z,6.10
2023-05-05T17:32:53.070Z,6.20
2023-05-05T17:35:47.226Z,7.30
2023-05-05T17:38:41.416Z,6.30
2023-05-05T17:41:35.307Z,7.00
2023-05-05T17:44:29.271Z,8.00
2023-05-05T17:47:24.172Z,5.10
2023-05-05T17:50:18.243Z,4.60
2023-05-05T17:53:12.391Z,5.00
2023-05-05T17:56:08.749Z,10.90
2023-05-05T17:59:03.227Z,5.50
2023-05-05T18:01:56.986Z,6.00
2023-05-05T18:04:50.758Z,6.90
2023-05-05T18:07:44.875Z,9.80
2023-05-05T18:10:38.856Z,9.90
2023-05-05T18:13:32.739Z,6.70
2023-05-05T18:16:26.621Z,6.30
2023-05-05T18:19:18.096Z,10.20
2023-05-05T18:22:12.538Z,6.90
2023-05-05T18:25:08.276Z,6.60
2023-05-05T18:28:02.081Z,8.60
2023-05-05T18:30:56.193Z,6.30
2023-05-05T18:33:50.202Z,7.10
2023-05-05T18:36:44.150Z,7.90
2023-05-05T18:39:38.198Z,7.60
2023-05-05T18:42:31.988Z,8.00
2023-05-05T18:45:26.186Z,7.30
2023-05-05T18:48:20.379Z,8.20
2023-05-05T18:51:14.042Z,8.90
2023-05-05T18:54:08.803Z,6.30
2023-05-05T18:57:03.586Z,8.60
2023-05-05T18:59:57.413Z,7.20
2023-05-05T19:02:51.314Z,11.40
2023-05-05T19:05:45.304Z,6.60
2023-05-05T19:08:39.083Z,7.50
2023-05-05T19:11:32.934Z,6.80
2023-05-05T19:14:26.906Z,7.40
2023-05-05T19:17:20.841Z,7.50
2023-05-05T19:20:15.835Z,7.60
2023-05-05T19:23:09.872Z,7.20
2023-05-05T19:26:05.619Z,8.30
2023-05-05T19:29:00.273Z,5.40
2023-05-05T19:31:54.437Z,8.80
2023-05-05T19:34:48.184Z,6.60
2023-05-05T19:37:42.307Z,8.30
2023-05-05T19:40:36.360Z,6.50
2023-05-05T19:43:30.147Z,8.50
2023-05-05T19:46:24.063Z,6.60
2023-05-05T19:49:17.916Z,7.50
2023-05-05T19:52:11.867Z,6.00
2023-05-05T19:55:06.793Z,8.70
2023-05-05T19:58:00.854Z,8.00
2023-05-05T20:00:54.825Z,8.10
2023-05-05T20:03:49.505Z,7.00
2023-05-05T20:06:44.681Z,8.50
2023-05-05T20:09:39.489Z,10.00
2023-05-05T20:12:33.400Z,9.60
2023-05-05T20:15:27.386Z,8.30
2023-05-05T20:18:21.395Z,10.20
2023-05-05T20:21:16.598Z,15.40
2023-05-05T20:24:11.757Z,7.40
2023-05-05T20:27:06.341Z,9.40
2023-05-05T20:30:00.100Z,8.30
2023-05-05T20:32:54.349Z,11.70
2023-05-05T20:35:48.349Z,11.00
2023-05-05T20:38:42.563Z,9.70
2023-05-05T20:41:39.384Z,9.50
2023-05-05T20:44:14.768Z,10.80
2023-05-05T20:47:08.817Z,10.90
2023-05-05T20:50:02.777Z,10.00
2023-05-05T20:53:21.181Z,12.10
2023-05-05T20:56:16.483Z,10.80
2023-05-05T20:59:14.660Z,11.20
2023-05-05T21:02:09.081Z,12.80
2023-05-05T21:05:03.325Z,10.70
2023-05-05T21:07:59.987Z,10.90
2023-05-05T21:13:47.712Z,12.80
2023-05-05T21:16:41.998Z,12.50
2023-05-05T21:19:35.947Z,12.40
2023-05-05T21:22:30.108Z,8.90
2023-05-05T21:25:25.513Z,10.40
2023-05-05T21:28:19.648Z,10.20
2023-05-05T21:31:21.646Z,9.70
2023-05-05T21:34:14.887Z,8.40
2023-05-05T21:37:08.958Z,11.60
2023-05-05T21:40:03.028Z,10.40
2023-05-05T21:42:57.330Z,8.80
2023-05-05T21:46:11.511Z,10.20
2023-05-05T21:49:28.071Z,9.70
2023-05-05T21:55:14.479Z,10.00
2023-05-05T21:58:08.225Z,11.40
2023-05-05T22:01:02.670Z,9.70
2023-05-05T22:03:56.885Z,8.50
2023-05-05T22:06:51.057Z,10.20
2023-05-05T22:09:45.531Z,7.90
2023-05-05T22:12:39.323Z,8.40
2023-05-05T22:15:45.355Z,8.10
2023-05-05T22:18:41.154Z,8.80
2023-05-05T22:21:35.397Z,6.70
2023-05-05T22:24:29.219Z,8.50
2023-05-05T22:27:23.253Z,8.40
2023-05-05T22:30:18.317Z,8.50
2023-05-05T22:33:12.374Z,9.10
2023-05-05T22:36:06.587Z,9.50
2023-05-05T22:39:00.370Z,8.50
2023-05-05T22:41:54.359Z,7.10
2023-05-05T22:44:48.298Z,8.30
2023-05-05T22:47:42.138Z,7.70
2023-05-05T22:50:36.147Z,7.50
2023-05-05T22:53:29.779Z,6.80
2023-05-05T22:56:23.794Z,6.60
2023-05-05T22:59:17.539Z,6.70
2023-05-05T23:02:11.451Z,9.20
2023-05-05T23:05:05.575Z,8.30
2023-05-05T23:08:01.557Z,7.30
2023-05-05T23:10:57.371Z,6.00
2023-05-05T23:13:51.172Z,7.10
2023-05-05T23:16:45.470Z,6.70
2023-05-05T23:19:39.840Z,5.50
2023-05-05T23:22:33.756Z,6.90
2023-05-05T23:25:27.768Z,7.70
2023-05-05T23:28:22.634Z,12.80
2023-05-05T23:31:16.610Z,6.10
2023-05-05T23:34:11.160Z,8.90
2023-05-05T23:37:06.316Z,5.70
2023-05-05T23:40:00.353Z,7.60
2023-05-05T23:42:54.468Z,8.20
2023-05-05T23:45:48.370Z,5.70
2023-05-05T23:48:42.369Z,7.30
2023-05-05T23:51:36.400Z,7.50
2023-05-05T23:54:19.081Z,7.10
2023-05-05T23:57:13.198Z,8.70
